Mount Horeb, WI

5:38 AM CDT on August 22, 2014 (GMT -0500)
Our House: SE side of Mount Horeb | Change Station
CLOSE
Current Station
Personal Weather Station
Location: Mt Horeb, WI
Elevation: 1243 ft
Nearby Weather Stations
Active Advisory: Dense Fog Advisory

Elev 1243 ft 43.00 °N, 89.71 °W | Updated 14 seconds ago

Overcast
Overcast
71.2 °F
Feels Like 71.2 °F
N
2.0
Wind Variable Wind from SE
Gusts 2.0 mph

Today
High -- | Low -- °F
--% Chance of Precip.
Yesterday
High -- | Low -- °F
Precip. -- in
6:12 AM 7:50 PM
Waning Crescent, 9% visible
Pressure 29.91 in
Visibility 4.0 miles
Clouds Overcast 400 ft
Dew Point 71 °F
Humidity 99%
Rainfall 0.00 in
Snow Depth Not available.
UV 0 out of 12
Pollen 8.30 out of 12
Ozone Good
PM2.5 Moderate
Flu Activity Not available.
METAR KC29 221015Z AUTO 00000KT 4SM OVC004 23/23 A2991 RMK AO1 T02290229

More Conditions Fewer Conditions

Pressure 29.91 in
Visibility 4.0 miles
Clouds Overcast 400 ft
Dew Point 71 °F
Humidity 99%
Rainfall 0.00 in
Snow Depth Not available.
UV 0 out of 12
Pollen 8.30 out of 12
Ozone Good
PM2.5 Moderate
Flu Activity Not available.
METAR KC29 221015Z AUTO 00000KT 4SM OVC004 23/23 A2991 RMK AO1 T02290229

More Conditions Fewer Conditions

10-Day Weather Forecast

Almanac

Astronomy

Aug. 22, 2014 Rise Set
Actual Time 6:12 AM CDT 7:50 PM CDT
Civil Twilight 5:42 AM CDT 8:20 PM CDT
Nautical Twilight 5:05 AM CDT 8:56 PM CDT
Astronomical Twilight 4:26 AM CDT 9:35 PM CDT
Moon 3:33 AM CDT 6:00 PM CDT
Length of Visible Light 14h 37m
Length of Day
13h 37m
Tomorrow will be 2m 43s shorter.
Waning Crescent, 9% of the Moon is Illuminated
Today
Waning Crescent
Aug 25
New
Sep 2
First Quarter
Sep 8
Full
Sep 15
Last Quarter

Today's Extremes

State Highs State Lows

Community

WunderPhotos

Upload Photos

1,746,149 photos uploaded!

Nearby

Air Quality

  Air Quality AQ Index Pollutant
Yesterday Good
PM2.5
Yesterday Good
OZONE
Current Moderate
PM2.5
Current Good
OZONE
Friday Good
OZONE
Friday Good
PM2.5
Saturday Moderate
OZONE
Saturday Moderate
PM2.5
Sunday Moderate
OZONE
Sunday Moderate
PM2.5
Monday Moderate
OZONE
Monday Moderate
PM2.5

Snow Depth

Station Depth Elevation
No new snow has been reported.

Earthquake Activity

City Distance Mag. Time & Date
No recent earthquake activity has been reported nearby.
Minimum magnitude displayed is 2.5.

Coastal Water Temperatures

Place Temperature
No Stations Reporting

Nearby Weather Stations